Sulphur Springs, Ohio
Current Conditions -  °F | °C
As of 1:52 PM on Thursday 23 Oct 2014 (Local Time) from KMFD Reporting Station
Clear Clear  
Wind Chill: 53°   Ceiling: Unl
Heat Index: 53°   Visibility: 10mi
Dew Point: 42°   Wind: 10mph
Humidity: 66%   Direction: 330°NNW
Pressure: 30.19"   Gusts: NA
Location:  40.87°N, 82.88°W
Report Text: KMFD 231752Z 33009KT 10SM CLR 12/06 A3019 RMK AO2 SLP228 T01170056 10117 20056 58016
Loading
Personal Weather Stations






























Interactive Weather Map
Tropical Storm Tracking
New forecast layout! Learn more

10-Day Weather Forecast

Advertisements
Track Severe Weather on mobile